Time;durP1;ratioP1;P1;durP2;ratioP2;P2;SDS_P1;SDS_P2;PMS_P1;PMS_P2;Temp;Humidity;BMP_temperature;BMP_pressure;BME280_temperature;BME280_humidity;BME280_pressure;Samples;Min_cycle;Max_cycle;Signal;HPM_P1;HPM_P2
2023/04/02 00:00:08;;;;;;;1.30;0.98;;;9.80;99.90;;;;;;5006124;28;20203;-69
2023/04/02 00:02:55;;;;;;;1.10;0.80;;;10.00;99.90;;;;;;5006667;28;20212;-69
2023/04/02 00:05:29;;;;;;;1.02;0.93;;;9.70;99.90;;;;;;5007844;28;20192;-68
2023/04/02 00:08:01;;;;;;;0.77;0.60;;;10.00;99.90;;;;;;5007893;28;20184;-69
2023/04/02 00:10:39;;;;;;;2.78;0.77;;;10.10;99.90;;;;;;5008049;28;20665;-69
2023/04/02 00:13:05;;;;;;;0.85;0.77;;;9.90;99.90;;;;;;5008883;28;20735;-68
2023/04/02 00:15:31;;;;;;;0.95;0.60;;;10.00;99.90;;;;;;5007504;28;20291;-69
2023/04/02 00:17:58;;;;;;;1.03;0.60;;;9.90;99.90;;;;;;5008132;28;20309;-69
2023/04/02 00:20:26;;;;;;;0.90;0.70;;;9.70;99.90;;;;;;5002775;28;20496;-69
2023/04/02 00:22:53;;;;;;;1.70;1.02;;;9.40;99.90;;;;;;5008039;28;20543;-69
2023/04/02 00:25:19;;;;;;;0.90;0.55;;;9.80;99.90;;;;;;5009398;28;20188;-69
2023/04/02 00:27:44;;;;;;;0.80;0.70;;;9.90;99.90;;;;;;5007728;28;20185;-68
2023/04/02 00:30:14;;;;;;;1.40;0.70;;;9.70;99.90;;;;;;5007654;28;20804;-69
2023/04/02 00:32:41;;;;;;;0.70;0.60;;;9.70;99.90;;;;;;5007069;28;20716;-69
2023/04/02 00:35:20;;;;;;;0.70;0.60;;;9.80;99.90;;;;;;5007347;28;20635;-69
2023/04/02 00:37:45;;;;;;;0.70;0.60;;;9.50;99.90;;;;;;5003682;28;20180;-69
2023/04/02 00:40:18;;;;;;;0.80;0.50;;;10.00;99.90;;;;;;5023859;28;20238;-69
2023/04/02 00:42:45;;;;;;;0.77;0.52;;;9.80;99.90;;;;;;5002973;28;20210;-67
2023/04/02 00:45:21;;;;;;;0.90;0.60;;;9.80;99.90;;;;;;5007476;28;20191;-69
2023/04/02 00:47:47;;;;;;;0.70;0.60;;;9.80;99.90;;;;;;5008313;28;20212;-69
2023/04/02 00:50:14;;;;;;;0.90;0.60;;;9.70;99.90;;;;;;5004072;28;20204;-69
2023/04/02 00:52:41;;;;;;;0.80;0.60;;;9.80;99.90;;;;;;5005690;28;20840;-69
2023/04/02 00:55:18;;;;;;;0.70;0.60;;;9.80;99.90;;;;;;5006507;28;20576;-69
2023/04/02 00:57:44;;;;;;;0.60;0.60;;;9.60;99.90;;;;;;5006171;28;20214;-68
2023/04/02 01:00:18;;;;;;;0.70;0.60;;;9.70;99.90;;;;;;5006387;28;20724;-68
2023/04/02 01:03:15;;;;;;;0.60;0.60;;;9.90;99.90;;;;;;5007562;28;20584;-68
2023/04/02 01:05:50;;;;;;;1.33;0.70;;;9.80;99.90;;;;;;5017060;28;20189;-68
2023/04/02 01:08:20;;;;;;;2.88;0.70;;;9.80;99.90;;;;;;5006883;28;20188;-67
2023/04/02 01:11:16;;;;;;;0.60;0.50;;;9.80;99.90;;;;;;5007248;28;20276;-68
2023/04/02 01:13:50;;;;;;;1.23;0.98;;;9.90;99.90;;;;;;5008110;28;20274;-68
2023/04/02 01:16:35;;;;;;;0.90;0.60;;;10.00;99.90;;;;;;5009690;28;20205;-68
2023/04/02 01:19:24;;;;;;;0.80;0.60;;;10.10;99.90;;;;;;5006740;28;20212;-68
2023/04/02 01:21:59;;;;;;;1.00;0.70;;;10.00;99.90;;;;;;5023187;28;20201;-68
2023/04/02 01:24:32;;;;;;;0.77;0.60;;;9.90;99.90;;;;;;5005913;28;20266;-67
2023/04/02 01:27:00;;;;;;;1.20;0.70;;;9.90;99.90;;;;;;5006947;28;20246;-68
2023/04/02 01:29:38;;;;;;;0.80;0.73;;;10.20;99.90;;;;;;5007303;28;20213;-68
2023/04/02 01:32:08;;;;;;;0.60;0.50;;;10.00;99.90;;;;;;5010268;28;20250;-68
2023/04/02 01:34:35;;;;;;;0.60;0.50;;;9.90;99.90;;;;;;5001769;28;20221;-68
2023/04/02 01:37:06;;;;;;;0.98;0.47;;;10.10;99.90;;;;;;5009230;28;20805;-68
2023/04/02 01:40:04;;;;;;;0.60;0.52;;;9.90;99.90;;;;;;5006867;28;20661;-68
2023/04/02 01:42:38;;;;;;;2.05;0.63;;;10.10;99.90;;;;;;5001420;28;20749;-68
2023/04/02 01:45:11;;;;;;;1.50;0.60;;;10.20;99.90;;;;;;5011245;28;20200;-68
2023/04/02 01:47:37;;;;;;;0.82;0.55;;;10.00;99.90;;;;;;5006198;28;20646;-68
2023/04/02 01:50:17;;;;;;;0.60;0.55;;;10.00;99.90;;;;;;5006577;28;20212;-68
2023/04/02 01:52:49;;;;;;;2.03;0.70;;;10.20;99.90;;;;;;5006680;28;20204;-68
2023/04/02 01:55:23;;;;;;;0.80;0.68;;;10.20;99.90;;;;;;5008392;28;20209;-68
2023/04/02 01:57:51;;;;;;;1.05;0.60;;;10.10;99.90;;;;;;5007124;28;20195;-68
2023/04/02 02:00:17;;;;;;;1.63;0.70;;;10.30;99.90;;;;;;5011003;28;20248;-68
2023/04/02 02:02:47;;;;;;;0.93;0.63;;;10.10;99.90;;;;;;5010752;28;20682;-68
2023/04/02 02:05:15;;;;;;;0.73;0.65;;;10.10;99.90;;;;;;5003948;28;20195;-68
2023/04/02 02:07:42;;;;;;;0.80;0.60;;;10.30;99.90;;;;;;5011680;28;20679;-68
2023/04/02 02:10:32;;;;;;;0.88;0.70;;;10.30;99.90;;;;;;5012549;28;20226;-68
2023/04/02 02:12:59;;;;;;;0.60;0.50;;;10.40;99.90;;;;;;5009845;28;20980;-68
2023/04/02 02:15:26;;;;;;;1.98;1.00;;;10.20;99.90;;;;;;5012142;28;20756;-68
2023/04/02 02:17:57;;;;;;;2.67;0.77;;;10.10;99.90;;;;;;5011538;28;20180;-68
2023/04/02 02:20:24;;;;;;;0.65;0.50;;;10.20;99.90;;;;;;5003473;28;20208;-68
2023/04/02 02:22:50;;;;;;;1.10;0.77;;;10.30;99.90;;;;;;5011777;28;20204;-68
2023/04/02 02:25:25;;;;;;;1.00;0.90;;;10.30;99.90;;;;;;5008169;28;20643;-68
2023/04/02 02:28:02;;;;;;;0.77;0.63;;;10.40;99.90;;;;;;5009183;28;20450;-68
2023/04/02 02:30:43;;;;;;;0.70;0.70;;;10.30;99.90;;;;;;5010706;28;20212;-69
2023/04/02 02:33:24;;;;;;;2.10;0.60;;;10.50;99.90;;;;;;5009407;28;20270;-69
2023/04/02 02:36:05;;;;;;;1.05;0.95;;;10.50;99.90;;;;;;5006344;28;20673;-69
2023/04/02 02:38:33;;;;;;;1.05;0.95;;;10.40;99.90;;;;;;5010488;28;20182;-69
2023/04/02 02:41:16;;;;;;;0.90;0.70;;;10.40;99.90;;;;;;5007793;28;20658;-69
2023/04/02 02:43:55;;;;;;;0.90;0.60;;;10.30;99.90;;;;;;5011018;28;20246;-69
2023/04/02 02:46:22;;;;;;;1.48;1.10;;;10.50;99.90;;;;;;5010219;28;20187;-69
2023/04/02 02:48:50;;;;;;;1.00;0.90;;;10.40;99.90;;;;;;5005610;28;20211;-67
2023/04/02 02:51:26;;;;;;;0.95;0.80;;;10.60;99.90;;;;;;5010050;28;20620;-70
2023/04/02 02:53:55;;;;;;;1.10;0.90;;;10.30;99.90;;;;;;5008162;28;20561;-70
2023/04/02 02:56:22;;;;;;;0.77;0.50;;;10.50;99.90;;;;;;5006964;28;20220;-70
2023/04/02 02:58:51;;;;;;;0.60;0.50;;;10.30;99.90;;;;;;5009332;28;20179;-69
2023/04/02 03:01:17;;;;;;;0.70;0.70;;;10.60;99.90;;;;;;5010341;28;20254;-69
2023/04/02 03:03:44;;;;;;;0.70;0.65;;;10.50;99.90;;;;;;5011106;28;20188;-69
2023/04/02 03:06:15;;;;;;;1.52;0.70;;;10.20;99.90;;;;;;5009325;28;20235;-69
2023/04/02 03:08:55;;;;;;;1.20;0.85;;;10.40;99.90;;;;;;5009040;28;20216;-70
2023/04/02 03:11:38;;;;;;;0.93;0.70;;;10.30;99.90;;;;;;5011001;28;20208;-70
2023/04/02 03:14:26;;;;;;;0.60;0.60;;;10.30;99.90;;;;;;5005617;28;20189;-70
2023/04/02 03:16:59;;;;;;;0.70;0.68;;;10.30;99.90;;;;;;5028215;28;20184;-68
2023/04/02 03:20:01;;;;;;;1.40;0.63;;;10.50;99.90;;;;;;5010985;28;20410;-70
2023/04/02 03:22:34;;;;;;;1.38;0.80;;;10.50;99.90;;;;;;5008902;28;20279;-68
2023/04/02 03:25:35;;;;;;;1.30;0.82;;;10.40;99.90;;;;;;5011101;28;20213;-68
2023/04/02 03:28:06;;;;;;;0.80;0.60;;;10.40;99.90;;;;;;5005855;28;20317;-68
2023/04/02 03:30:47;;;;;;;0.60;0.50;;;10.30;99.90;;;;;;5010447;28;20220;-67
2023/04/02 03:33:15;;;;;;;0.70;0.70;;;10.30;99.90;;;;;;5011053;28;20271;-68
2023/04/02 03:35:56;;;;;;;1.35;1.10;;;10.40;99.90;;;;;;5007655;28;20215;-68
2023/04/02 03:38:32;;;;;;;1.60;0.75;;;10.30;99.90;;;;;;5009810;28;20175;-68
2023/04/02 03:41:09;;;;;;;1.55;1.30;;;10.50;99.90;;;;;;5007366;28;20757;-68
2023/04/02 03:43:48;;;;;;;0.90;0.80;;;10.50;99.90;;;;;;5008769;28;20646;-68
2023/04/02 03:46:30;;;;;;;1.08;0.90;;;10.60;99.90;;;;;;5008636;28;20187;-68
2023/04/02 03:49:09;;;;;;;3.05;0.80;;;10.60;99.90;;;;;;5009873;28;20250;-68
2023/04/02 03:52:09;;;;;;;2.63;1.08;;;10.50;99.90;;;;;;5009782;28;20234;-68
2023/04/02 03:54:35;;;;;;;0.80;0.63;;;10.50;99.90;;;;;;5008553;28;20277;-68
2023/04/02 03:57:01;;;;;;;0.60;0.60;;;10.20;99.90;;;;;;5010647;28;20184;-68
2023/04/02 04:00:06;;;;;;;0.60;0.60;;;10.30;99.90;;;;;;5007666;28;20639;-69
2023/04/02 04:02:42;;;;;;;0.70;0.60;;;10.30;99.90;;;;;;5012945;28;20211;-68
2023/04/02 04:05:21;;;;;;;0.80;0.70;;;10.40;99.90;;;;;;5009267;28;20196;-67
2023/04/02 04:07:55;;;;;;;0.70;0.60;;;10.40;99.90;;;;;;5007856;28;20227;-68
2023/04/02 04:10:26;;;;;;;1.65;0.75;;;10.20;99.90;;;;;;5009771;28;20602;-68
2023/04/02 04:12:56;;;;;;;0.80;0.68;;;10.40;99.90;;;;;;5006936;28;20196;-68
2023/04/02 04:15:27;;;;;;;0.80;0.60;;;10.40;99.90;;;;;;5010069;28;20212;-68
2023/04/02 04:18:23;;;;;;;2.85;0.60;;;10.50;99.90;;;;;;5003313;28;20663;-68
2023/04/02 04:20:59;;;;;;;1.20;0.70;;;10.00;99.90;;;;;;5006077;28;20188;-67
2023/04/02 04:23:37;;;;;;;0.75;0.55;;;10.20;99.90;;;;;;5008778;28;20270;-68
2023/04/02 04:26:18;;;;;;;1.10;0.60;;;9.90;99.90;;;;;;4999756;28;20191;-67
2023/04/02 04:29:08;;;;;;;1.52;0.60;;;10.10;99.90;;;;;;5010278;28;20215;-67
2023/04/02 04:31:41;;;;;;;0.80;0.70;;;10.20;99.90;;;;;;5021233;28;20211;-68
2023/04/02 04:34:14;;;;;;;0.70;0.50;;;10.10;99.90;;;;;;5009893;28;20188;-68
2023/04/02 04:36:53;;;;;;;1.20;0.80;;;10.10;99.90;;;;;;5007489;28;20216;-67
2023/04/02 04:39:39;;;;;;;0.70;0.70;;;10.20;99.90;;;;;;5007827;28;20183;-68
2023/04/02 04:42:11;;;;;;;0.90;0.70;;;10.40;99.90;;;;;;5005883;28;20203;-68
2023/04/02 04:45:07;;;;;;;1.35;0.60;;;10.20;99.90;;;;;;5008566;28;20176;-67
2023/04/02 04:47:38;;;;;;;0.75;0.68;;;10.20;99.90;;;;;;5009536;28;20220;-67
2023/04/02 04:50:40;;;;;;;0.70;0.60;;;10.00;99.90;;;;;;5008382;28;20685;-68
2023/04/02 04:53:07;;;;;;;0.80;0.60;;;10.10;99.90;;;;;;5003782;28;20223;-67
2023/04/02 04:55:41;;;;;;;1.10;0.50;;;10.20;99.90;;;;;;5038725;28;20736;-68
2023/04/02 04:58:22;;;;;;;1.35;0.73;;;10.20;99.90;;;;;;5006266;28;20222;-67
2023/04/02 05:01:11;;;;;;;0.70;0.60;;;10.20;99.90;;;;;;5006217;28;20519;-67
2023/04/02 05:03:59;;;;;;;0.80;0.70;;;10.20;99.90;;;;;;5001372;28;20176;-67
2023/04/02 05:06:37;;;;;;;2.42;0.70;;;10.10;99.90;;;;;;4995193;28;20533;-68
2023/04/02 05:09:14;;;;;;;0.60;0.50;;;10.30;99.90;;;;;;5008903;28;20720;-68
2023/04/02 05:11:46;;;;;;;1.75;1.13;;;10.50;99.90;;;;;;5037676;28;20672;-68
2023/04/02 05:14:21;;;;;;;0.75;0.68;;;10.20;99.90;;;;;;5009171;28;20188;-67
2023/04/02 05:17:18;;;;;;;1.98;0.60;;;10.30;99.90;;;;;;5008712;28;20290;-68
2023/04/02 05:19:55;;;;;;;0.88;0.50;;;10.40;99.90;;;;;;5008677;28;20191;-67
2023/04/02 05:22:41;;;;;;;1.35;0.70;;;10.30;99.90;;;;;;5002749;28;20208;-69
2023/04/02 05:25:21;;;;;;;1.05;0.60;;;10.20;99.90;;;;;;5004242;28;20188;-68
2023/04/02 05:27:51;;;;;;;1.10;0.70;;;10.20;99.90;;;;;;5005906;28;20192;-70
2023/04/02 05:30:22;;;;;;;0.90;0.73;;;10.10;99.90;;;;;;5008528;28;20192;-70
2023/04/02 05:33:12;;;;;;;1.80;0.70;;;10.40;99.90;;;;;;5011111;28;20577;-68
2023/04/02 05:35:43;;;;;;;0.82;0.50;;;10.30;99.90;;;;;;5010090;28;20305;-69
2023/04/02 05:38:20;;;;;;;1.13;0.70;;;10.40;99.90;;;;;;5008128;28;20220;-68
2023/04/02 05:40:50;;;;;;;1.30;1.10;;;10.30;99.90;;;;;;5009612;28;20259;-69
2023/04/02 05:43:18;;;;;;;0.80;0.70;;;10.00;99.90;;;;;;5012336;28;20840;-68
2023/04/02 05:45:51;;;;;;;3.63;0.80;;;10.30;99.90;;;;;;5012643;28;20227;-69
2023/04/02 05:48:21;;;;;;;1.70;0.65;;;10.40;99.90;;;;;;5006708;28;20201;-68
2023/04/02 05:50:51;;;;;;;0.90;0.77;;;10.10;99.90;;;;;;5012337;28;20185;-69
2023/04/02 05:53:32;;;;;;;1.25;0.70;;;10.20;99.90;;;;;;5012404;28;20286;-69
2023/04/02 05:56:04;;;;;;;0.90;0.63;;;10.20;99.90;;;;;;5008901;28;20219;-69
2023/04/02 05:59:15;;;;;;;0.65;0.60;;;10.40;99.90;;;;;;5012987;28;20184;-69
2023/04/02 06:02:29;;;;;;;1.00;0.75;;;10.60;99.90;;;;;;5027885;28;20726;-68
2023/04/02 06:05:06;;;;;;;0.80;0.70;;;10.50;99.90;;;;;;5009750;28;20200;-68
2023/04/02 06:07:46;;;;;;;0.90;0.80;;;10.50;99.90;;;;;;5009730;28;20204;-68
2023/04/02 06:10:22;;;;;;;1.08;0.80;;;10.80;99.90;;;;;;5008991;28;20630;-69
2023/04/02 06:13:05;;;;;;;1.42;1.00;;;10.70;99.90;;;;;;5006995;28;20215;-68
2023/04/02 06:15:33;;;;;;;1.30;0.95;;;10.70;99.90;;;;;;5012942;28;20736;-69
2023/04/02 06:18:12;;;;;;;1.98;1.20;;;10.70;99.90;;;;;;5012101;28;20240;-69
2023/04/02 06:20:38;;;;;;;1.88;1.50;;;10.70;99.90;;;;;;5008899;28;20180;-70
2023/04/02 06:23:11;;;;;;;2.80;1.00;;;10.70;99.90;;;;;;5009558;28;20196;-69
2023/04/02 06:25:57;;;;;;;1.63;1.10;;;10.60;99.90;;;;;;5041412;28;20201;-69
2023/04/02 06:28:33;;;;;;;1.80;1.10;;;10.70;99.90;;;;;;5008486;28;20266;-69
2023/04/02 06:31:06;;;;;;;1.02;0.93;;;11.00;99.90;;;;;;5010864;28;20213;-69
2023/04/02 06:33:32;;;;;;;2.65;1.00;;;11.20;99.90;;;;;;5011476;28;20734;-68
2023/04/02 06:35:59;;;;;;;0.73;0.73;;;10.90;99.90;;;;;;5007023;28;20303;-69
2023/04/02 06:38:29;;;;;;;2.05;0.80;;;10.70;99.90;;;;;;5011817;28;20585;-68
2023/04/02 06:41:03;;;;;;;1.30;0.90;;;10.70;99.90;;;;;;5010432;28;20211;-68
2023/04/02 06:43:41;;;;;;;1.08;0.70;;;10.70;99.90;;;;;;5010955;28;20217;-68
2023/04/02 06:46:17;;;;;;;0.95;0.90;;;10.80;99.90;;;;;;5010449;28;20245;-68
2023/04/02 06:48:45;;;;;;;1.50;0.80;;;11.00;99.90;;;;;;5011100;28;20220;-68
2023/04/02 06:51:15;;;;;;;1.20;1.08;;;11.10;99.90;;;;;;5006476;28;20206;-69
2023/04/02 06:53:47;;;;;;;1.35;0.80;;;11.30;99.90;;;;;;5015905;28;20201;-69
2023/04/02 06:56:18;;;;;;;1.10;1.00;;;11.20;99.90;;;;;;5010086;28;20213;-69
2023/04/02 06:58:44;;;;;;;1.00;0.90;;;11.20;99.90;;;;;;5009919;28;20189;-69
2023/04/02 07:01:18;;;;;;;0.80;0.80;;;11.50;99.90;;;;;;5010646;28;20916;-69
2023/04/02 07:03:44;;;;;;;1.45;0.93;;;11.50;99.90;;;;;;5010118;28;20190;-69
2023/04/02 07:06:16;;;;;;;1.60;1.50;;;11.50;99.90;;;;;;5007854;28;20683;-69
2023/04/02 07:08:41;;;;;;;1.08;0.85;;;11.50;99.90;;;;;;5008885;28;20444;-69
2023/04/02 07:11:13;;;;;;;1.20;0.87;;;11.40;99.90;;;;;;5008875;28;20210;-69
2023/04/02 07:13:38;;;;;;;1.33;0.93;;;11.70;99.90;;;;;;5044684;28;20190;-69
2023/04/02 07:16:05;;;;;;;1.80;1.07;;;11.10;99.90;;;;;;5009502;28;20214;-69
2023/04/02 07:18:33;;;;;;;0.90;0.68;;;11.00;99.90;;;;;;5011119;28;20213;-69
2023/04/02 07:20:59;;;;;;;0.80;0.70;;;11.10;99.90;;;;;;5007441;28;20209;-69
2023/04/02 07:23:26;;;;;;;0.90;0.70;;;11.60;99.90;;;;;;5012140;28;20202;-70
2023/04/02 07:25:55;;;;;;;1.10;0.98;;;11.60;99.90;;;;;;5007269;28;20442;-69
2023/04/02 07:28:22;;;;;;;1.20;1.00;;;11.80;99.90;;;;;;5009705;28;20186;-68
2023/04/02 07:30:47;;;;;;;1.55;1.00;;;11.90;99.90;;;;;;5005507;28;20197;-69
2023/04/02 07:33:19;;;;;;;0.87;0.77;;;11.80;99.90;;;;;;5013094;28;20196;-69
2023/04/02 07:35:46;;;;;;;0.90;0.70;;;12.10;99.90;;;;;;5008668;28;20682;-69
2023/04/02 07:38:11;;;;;;;1.48;1.10;;;12.00;99.90;;;;;;5011261;28;20281;-69
2023/04/02 07:40:37;;;;;;;1.90;1.20;;;11.70;99.90;;;;;;5007034;28;20265;-69
2023/04/02 07:43:04;;;;;;;1.23;1.13;;;11.60;99.90;;;;;;5025470;28;20565;-69
2023/04/02 07:45:30;;;;;;;1.30;0.82;;;11.60;99.90;;;;;;4997926;28;20189;-69
2023/04/02 07:47:56;;;;;;;2.80;1.13;;;11.50;99.90;;;;;;5009681;28;20179;-69
2023/04/02 07:50:22;;;;;;;0.70;0.60;;;11.60;99.90;;;;;;5009996;28;20187;-69
2023/04/02 07:52:47;;;;;;;0.80;0.73;;;11.40;99.90;;;;;;5019061;28;20203;-69
2023/04/02 07:55:15;;;;;;;1.60;1.10;;;11.70;99.90;;;;;;5004296;28;20210;-69
2023/04/02 07:57:49;;;;;;;1.25;1.15;;;11.50;99.90;;;;;;5008910;28;20602;-69
2023/04/02 08:00:16;;;;;;;1.45;0.70;;;11.60;99.90;;;;;;5010053;28;20208;-69
2023/04/02 08:02:42;;;;;;;1.63;0.95;;;11.60;99.90;;;;;;5007669;28;20763;-69
2023/04/02 08:05:08;;;;;;;1.20;1.10;;;11.70;99.90;;;;;;5007271;28;20261;-70
2023/04/02 08:07:34;;;;;;;1.40;0.80;;;11.90;99.90;;;;;;5005687;28;20206;-71
2023/04/02 08:10:00;;;;;;;1.10;0.75;;;11.50;99.90;;;;;;5005865;28;20244;-66
2023/04/02 08:12:26;;;;;;;1.23;0.80;;;11.70;99.90;;;;;;5007296;28;20202;-65
2023/04/02 08:14:51;;;;;;;3.33;1.00;;;11.70;99.90;;;;;;5009589;28;20533;-69
2023/04/02 08:17:17;;;;;;;1.30;0.90;;;12.00;99.90;;;;;;5006306;28;20278;-71
2023/04/02 08:19:43;;;;;;;1.30;0.98;;;12.10;99.90;;;;;;5008855;28;20470;-70
2023/04/02 08:22:09;;;;;;;1.73;1.43;;;12.00;99.90;;;;;;5006298;28;20205;-68
2023/04/02 08:24:35;;;;;;;1.27;0.85;;;12.20;99.90;;;;;;5008907;28;20248;-69
2023/04/02 08:27:01;;;;;;;1.17;1.00;;;12.20;99.90;;;;;;5007667;28;20186;-69
2023/04/02 08:29:30;;;;;;;0.90;0.90;;;12.10;99.90;;;;;;5007023;28;20183;-69
2023/04/02 08:31:59;;;;;;;1.00;0.90;;;12.20;99.90;;;;;;5006062;28;20230;-69
2023/04/02 08:34:25;;;;;;;0.80;0.80;;;12.10;99.90;;;;;;5007036;28;20240;-70
2023/04/02 08:36:55;;;;;;;1.20;0.80;;;11.90;99.90;;;;;;5007871;28;20216;-69
2023/04/02 08:39:21;;;;;;;0.80;0.80;;;12.20;99.90;;;;;;5007323;28;20179;-69
2023/04/02 08:42:06;;;;;;;1.00;0.90;;;12.20;99.90;;;;;;5008267;28;20630;-69
2023/04/02 08:45:20;;;;;;;1.35;1.20;;;12.20;99.90;;;;;;5002779;28;20269;-69
2023/04/02 08:47:49;;;;;;;1.27;1.00;;;12.20;99.90;;;;;;5005477;28;20659;-69
2023/04/02 08:50:21;;;;;;;1.45;1.35;;;12.20;99.90;;;;;;5009032;28;20195;-69
2023/04/02 08:52:47;;;;;;;1.42;1.30;;;12.00;99.90;;;;;;5006762;28;20206;-69
2023/04/02 08:55:34;;;;;;;1.50;1.02;;;11.90;99.90;;;;;;5006357;28;20207;-69
2023/04/02 08:58:07;;;;;;;1.92;1.42;;;12.00;99.90;;;;;;5007795;28;20205;-70
2023/04/02 09:00:40;;;;;;;1.17;1.00;;;11.90;99.90;;;;;;5008094;28;20265;-69
2023/04/02 09:03:16;;;;;;;1.52;0.90;;;11.90;99.90;;;;;;5007038;28;20182;-69
2023/04/02 09:05:44;;;;;;;1.20;1.00;;;12.00;99.90;;;;;;5007209;28;20664;-69
2023/04/02 09:08:36;;;;;;;1.15;0.93;;;11.80;99.90;;;;;;5012725;28;20183;-69
2023/04/02 09:11:31;;;;;;;1.63;1.52;;;11.90;99.90;;;;;;5011750;28;20226;-69
2023/04/02 09:13:59;;;;;;;3.38;1.05;;;12.00;99.90;;;;;;5010070;28;20285;-69
2023/04/02 09:16:42;;;;;;;1.33;1.00;;;11.60;99.90;;;;;;5010401;28;20259;-69
2023/04/02 09:19:20;;;;;;;2.30;1.25;;;11.80;99.90;;;;;;5012482;28;20545;-70
2023/04/02 09:22:05;;;;;;;1.20;1.02;;;12.10;99.90;;;;;;5007456;28;20271;-69
2023/04/02 09:24:31;;;;;;;0.90;0.90;;;12.10;99.90;;;;;;5011550;28;20193;-69
2023/04/02 09:26:57;;;;;;;1.10;1.00;;;11.60;99.90;;;;;;5011438;28;20561;-69
2023/04/02 09:29:54;;;;;;;1.63;0.90;;;12.10;99.90;;;;;;5012726;28;20205;-70
2023/04/02 09:32:51;;;;;;;1.58;1.30;;;12.00;99.90;;;;;;5009437;28;20477;-70
2023/04/02 09:35:18;;;;;;;1.20;0.93;;;12.20;99.90;;;;;;5010644;28;20594;-70
2023/04/02 09:37:44;;;;;;;1.55;1.00;;;12.30;99.90;;;;;;5010824;28;20194;-70
2023/04/02 09:40:32;;;;;;;1.00;1.00;;;12.30;99.90;;;;;;5012325;28;20193;-70
2023/04/02 09:43:22;;;;;;;1.23;1.13;;;12.40;99.90;;;;;;5007624;28;20500;-70
2023/04/02 09:46:10;;;;;;;1.27;1.17;;;12.20;99.90;;;;;;5011968;28;20675;-70
2023/04/02 09:48:49;;;;;;;1.50;1.40;;;12.10;99.90;;;;;;5007781;28;20203;-69
2023/04/02 09:51:20;;;;;;;1.27;1.17;;;12.20;99.90;;;;;;5007121;28;20284;-70
2023/04/02 09:54:08;;;;;;;1.55;0.95;;;12.40;99.90;;;;;;5013001;28;20228;-69
2023/04/02 09:56:38;;;;;;;1.55;1.30;;;12.40;99.90;;;;;;5012150;28;20234;-69
2023/04/02 09:59:04;;;;;;;1.40;1.30;;;12.40;99.90;;;;;;5012356;28;20245;-69
2023/04/02 10:01:33;;;;;;;1.13;1.03;;;12.70;99.90;;;;;;5011753;28;20211;-70
2023/04/02 10:04:02;;;;;;;1.38;1.20;;;12.60;99.90;;;;;;5011362;28;20636;-69
2023/04/02 10:06:29;;;;;;;2.00;1.10;;;11.90;99.90;;;;;;5011146;28;20261;-70
2023/04/02 10:08:55;;;;;;;1.10;1.00;;;12.40;99.90;;;;;;5009783;28;20195;-69
2023/04/02 10:11:30;;;;;;;2.17;1.20;;;12.30;99.90;;;;;;5010643;28;20226;-69
2023/04/02 10:14:20;;;;;;;1.20;1.10;;;12.40;99.90;;;;;;5012145;28;20264;-69
2023/04/02 10:16:52;;;;;;;1.10;1.00;;;12.30;99.90;;;;;;5011159;28;20691;-69
2023/04/02 10:19:40;;;;;;;1.25;0.88;;;12.30;99.90;;;;;;5011526;28;20198;-67
2023/04/02 10:22:13;;;;;;;1.80;1.20;;;12.00;99.90;;;;;;5010920;28;20729;-70
2023/04/02 10:24:39;;;;;;;1.20;1.10;;;12.10;99.90;;;;;;5011428;28;20183;-69
2023/04/02 10:27:40;;;;;;;1.90;1.30;;;12.10;99.90;;;;;;5007384;28;20190;-70
2023/04/02 10:30:26;;;;;;;2.13;1.30;;;12.20;99.90;;;;;;5011213;28;20556;-70
2023/04/02 10:32:57;;;;;;;2.60;1.70;;;12.20;99.90;;;;;;5010582;28;20648;-70
2023/04/02 10:35:53;;;;;;;2.30;1.33;;;12.40;99.90;;;;;;5008330;28;20211;-70
2023/04/02 10:38:38;;;;;;;1.13;0.80;;;12.60;99.90;;;;;;5009323;28;20182;-70
2023/04/02 10:41:39;;;;;;;0.95;0.70;;;12.50;99.90;;;;;;5006800;28;20293;-70
2023/04/02 10:44:08;;;;;;;1.05;0.95;;;12.70;99.90;;;;;;5010050;28;20675;-70
2023/04/02 10:46:49;;;;;;;2.42;1.90;;;12.80;99.90;;;;;;5011184;28;20187;-70
2023/04/02 10:49:26;;;;;;;1.40;0.88;;;12.80;99.90;;;;;;5004595;28;20202;-70
2023/04/02 10:52:12;;;;;;;1.10;1.00;;;12.60;99.90;;;;;;5011078;28;20248;-69
2023/04/02 10:54:53;;;;;;;3.00;1.10;;;12.60;99.90;;;;;;5009674;28;20285;-70
2023/04/02 10:57:38;;;;;;;1.13;1.02;;;13.00;99.90;;;;;;5010182;28;20277;-70
2023/04/02 11:00:08;;;;;;;1.42;0.80;;;12.80;99.90;;;;;;5004408;28;20187;-70
2023/04/02 11:03:00;;;;;;;3.90;1.23;;;12.40;99.90;;;;;;5009620;28;20307;-70
2023/04/02 11:05:42;;;;;;;8.13;2.25;;;12.50;99.90;;;;;;5036287;28;20230;-70
2023/04/02 11:08:43;;;;;;;0.73;0.60;;;12.60;99.90;;;;;;5014228;28;20277;-70
2023/04/02 11:11:25;;;;;;;0.70;0.70;;;12.70;99.90;;;;;;5010288;28;20294;-69
2023/04/02 11:14:25;;;;;;;2.60;1.80;;;13.00;99.90;;;;;;5010774;28;20233;-70
2023/04/02 11:16:53;;;;;;;1.20;1.10;;;12.70;99.90;;;;;;5009214;28;20215;-70
2023/04/02 11:19:23;;;;;;;1.00;0.80;;;12.80;99.90;;;;;;5010223;28;20282;-70
2023/04/02 11:22:11;;;;;;;1.17;0.95;;;13.10;99.90;;;;;;5010541;28;20609;-69
2023/04/02 11:24:48;;;;;;;2.50;0.93;;;13.00;99.90;;;;;;5009813;28;20179;-70
2023/04/02 11:27:19;;;;;;;1.00;0.85;;;13.20;99.90;;;;;;5007202;28;20206;-70
2023/04/02 11:30:12;;;;;;;0.70;0.65;;;13.00;99.90;;;;;;5010813;28;20191;-69
2023/04/02 11:32:48;;;;;;;1.00;0.73;;;13.10;99.90;;;;;;5009691;28;20203;-70
2023/04/02 11:35:31;;;;;;;1.40;0.90;;;12.80;99.90;;;;;;5009505;28;20223;-70
2023/04/02 11:38:03;;;;;;;2.03;1.08;;;12.60;99.90;;;;;;5010018;28;20210;-70
2023/04/02 11:40:50;;;;;;;0.70;0.60;;;13.30;99.90;;;;;;5009012;28;20187;-70
2023/04/02 11:43:35;;;;;;;1.15;0.90;;;13.40;99.90;;;;;;5008262;28;20189;-70
2023/04/02 11:46:29;;;;;;;1.00;0.75;;;13.50;99.80;;;;;;5007058;28;20237;-70
2023/04/02 11:49:34;;;;;;;0.80;0.80;;;13.50;99.90;;;;;;5037905;28;20202;-70
2023/04/02 11:52:23;;;;;;;1.08;0.90;;;13.50;99.70;;;;;;5052678;28;20555;-70
2023/04/02 11:55:19;;;;;;;0.70;0.60;;;13.70;99.90;;;;;;5042898;28;20189;-70
2023/04/02 11:57:54;;;;;;;1.10;0.88;;;13.60;98.50;;;;;;5042074;28;20178;-70
2023/04/02 12:00:38;;;;;;;1.00;0.80;;;13.80;98.50;;;;;;5043208;28;20180;-70
2023/04/02 12:03:07;;;;;;;1.02;0.93;;;13.60;97.50;;;;;;5039731;28;20240;-70
2023/04/02 12:05:41;;;;;;;0.68;0.68;;;14.00;97.80;;;;;;5042075;28;20205;-69
2023/04/02 12:08:34;;;;;;;0.95;0.70;;;13.70;96.90;;;;;;5039847;28;20269;-70
2023/04/02 12:11:02;;;;;;;0.80;0.70;;;13.90;96.90;;;;;;5042000;28;20213;-69
2023/04/02 12:13:39;;;;;;;0.80;0.68;;;14.40;96.40;;;;;;5042719;28;20182;-70
2023/04/02 12:16:16;;;;;;;1.00;0.60;;;14.50;96.20;;;;;;5039191;28;20174;-69
2023/04/02 12:18:50;;;;;;;0.77;0.60;;;14.50;95.60;;;;;;5038510;28;20192;-69
2023/04/02 12:21:18;;;;;;;0.95;0.80;;;14.50;95.60;;;;;;5037782;28;20201;-69
2023/04/02 12:23:46;;;;;;;0.80;0.65;;;14.40;95.50;;;;;;5043941;28;20194;-69
2023/04/02 12:26:41;;;;;;;0.70;0.60;;;14.60;95.80;;;;;;5037357;28;20685;-70
2023/04/02 12:29:26;;;;;;;0.70;0.70;;;14.60;95.50;;;;;;5040904;28;20665;-69
2023/04/02 12:31:56;;;;;;;1.08;0.70;;;14.90;95.30;;;;;;5044918;28;20320;-70
2023/04/02 12:34:25;;;;;;;1.67;0.95;;;15.30;94.70;;;;;;5038822;28;20186;-69
2023/04/02 12:37:02;;;;;;;0.70;0.70;;;15.30;94.30;;;;;;5039922;28;20262;-69
2023/04/02 12:39:30;;;;;;;0.80;0.68;;;15.10;94.70;;;;;;5040441;28;20181;-69
2023/04/02 12:41:56;;;;;;;0.70;0.70;;;15.40;94.50;;;;;;5041775;28;20241;-69
2023/04/02 12:44:25;;;;;;;0.90;0.87;;;15.70;93.70;;;;;;5041900;28;20628;-69
2023/04/02 12:46:52;;;;;;;1.30;0.95;;;15.80;93.60;;;;;;5039312;28;20431;-69
2023/04/02 12:49:30;;;;;;;0.90;0.60;;;15.40;93.10;;;;;;5039548;28;20316;-69
2023/04/02 12:51:57;;;;;;;1.92;1.10;;;15.30;93.60;;;;;;5040596;28;20300;-69
2023/04/02 12:54:23;;;;;;;1.00;0.90;;;15.10;94.40;;;;;;5044239;28;20186;-69
2023/04/02 12:56:49;;;;;;;1.00;0.80;;;15.20;94.90;;;;;;5043660;28;20228;-69
2023/04/02 12:59:33;;;;;;;1.00;0.90;;;15.00;95.40;;;;;;5045575;28;20181;-69
2023/04/02 13:02:01;;;;;;;0.70;0.70;;;14.90;95.20;;;;;;5035227;28;20206;-69
2023/04/02 13:04:27;;;;;;;1.10;0.82;;;14.60;94.90;;;;;;5030603;28;20182;-69
2023/04/02 13:06:54;;;;;;;0.80;0.70;;;14.40;95.60;;;;;;5029012;28;20185;-69
2023/04/02 13:09:41;;;;;;;0.90;0.88;;;14.30;96.10;;;;;;5027667;28;20227;-69
2023/04/02 13:12:32;;;;;;;1.00;1.00;;;14.30;96.40;;;;;;5025230;28;20340;-69
2023/04/02 13:15:00;;;;;;;1.20;0.80;;;13.90;96.20;;;;;;5022765;28;20640;-69
2023/04/02 13:17:44;;;;;;;0.80;0.80;;;14.60;96.30;;;;;;5032029;28;20190;-68
2023/04/02 13:20:33;;;;;;;1.00;0.90;;;14.50;95.60;;;;;;5026232;28;20209;-68
2023/04/02 13:23:01;;;;;;;1.50;1.40;;;14.80;95.50;;;;;;5030333;28;20761;-68
2023/04/02 13:25:33;;;;;;;1.55;0.90;;;14.70;95.50;;;;;;5025578;28;20229;-68
2023/04/02 13:27:59;;;;;;;0.90;0.70;;;14.50;95.30;;;;;;5030018;28;20200;-68
2023/04/02 13:30:27;;;;;;;1.53;1.40;;;14.50;95.80;;;;;;5024483;28;20209;-70